sensor_id;sensor_type;location;lat;lon;timestamp;temperature;humidity
52211;DHT22;38179;52.756;6.906;2022-07-23T00:01:17;15.50;99.90
52211;DHT22;38179;52.756;6.906;2022-07-23T00:03:43;15.60;99.90
52211;DHT22;38179;52.756;6.906;2022-07-23T00:06:09;15.60;99.90
52211;DHT22;38179;52.756;6.906;2022-07-23T00:08:35;15.60;99.90
52211;DHT22;38179;52.756;6.906;2022-07-23T00:11:01;15.60;99.90
52211;DHT22;38179;52.756;6.906;2022-07-23T00:13:28;15.60;99.90
52211;DHT22;38179;52.756;6.906;2022-07-23T00:15:53;15.60;99.90
52211;DHT22;38179;52.756;6.906;2022-07-23T00:18:19;15.70;99.90
52211;DHT22;38179;52.756;6.906;2022-07-23T00:20:45;15.70;99.90
52211;DHT22;38179;52.756;6.906;2022-07-23T00:23:11;15.80;99.90
52211;DHT22;38179;52.756;6.906;2022-07-23T00:25:37;15.80;99.90
52211;DHT22;38179;52.756;6.906;2022-07-23T00:28:03;15.70;99.90
52211;DHT22;38179;52.756;6.906;2022-07-23T00:30:31;15.70;99.90
52211;DHT22;38179;52.756;6.906;2022-07-23T00:32:59;15.60;99.90
52211;DHT22;38179;52.756;6.906;2022-07-23T00:35:28;15.50;99.90
52211;DHT22;38179;52.756;6.906;2022-07-23T00:37:54;15.40;99.90
52211;DHT22;38179;52.756;6.906;2022-07-23T00:40:21;15.30;99.90
52211;DHT22;38179;52.756;6.906;2022-07-23T00:42:47;15.20;99.90
52211;DHT22;38179;52.756;6.906;2022-07-23T00:45:13;15.20;99.90
52211;DHT22;38179;52.756;6.906;2022-07-23T00:47:39;15.10;99.90
52211;DHT22;38179;52.756;6.906;2022-07-23T00:50:07;15.10;99.90
52211;DHT22;38179;52.756;6.906;2022-07-23T00:52:34;15.00;99.90
52211;DHT22;38179;52.756;6.906;2022-07-23T00:55:01;15.00;99.90
52211;DHT22;38179;52.756;6.906;2022-07-23T00:57:27;14.90;99.90
52211;DHT22;38179;52.756;6.906;2022-07-23T00:59:53;14.90;99.90
52211;DHT22;38179;52.756;6.906;2022-07-23T01:02:19;14.80;99.90
52211;DHT22;38179;52.756;6.906;2022-07-23T01:04:45;14.80;99.90
52211;DHT22;38179;52.756;6.906;2022-07-23T01:07:11;14.70;99.90
52211;DHT22;38179;52.756;6.906;2022-07-23T01:09:38;14.60;99.90
52211;DHT22;38179;52.756;6.906;2022-07-23T01:12:05;14.70;99.90
52211;DHT22;38179;52.756;6.906;2022-07-23T01:14:31;14.60;99.90
52211;DHT22;38179;52.756;6.906;2022-07-23T01:16:57;14.70;99.90
52211;DHT22;38179;52.756;6.906;2022-07-23T01:19:23;14.70;99.90
52211;DHT22;38179;52.756;6.906;2022-07-23T01:21:51;14.80;99.90
52211;DHT22;38179;52.756;6.906;2022-07-23T01:24:18;14.70;99.90
52211;DHT22;38179;52.756;6.906;2022-07-23T01:26:47;14.80;99.90
52211;DHT22;38179;52.756;6.906;2022-07-23T01:29:14;14.80;99.90
52211;DHT22;38179;52.756;6.906;2022-07-23T01:31:41;14.80;99.90
52211;DHT22;38179;52.756;6.906;2022-07-23T01:34:07;14.80;99.90
52211;DHT22;38179;52.756;6.906;2022-07-23T01:36:34;14.80;99.90
52211;DHT22;38179;52.756;6.906;2022-07-23T01:39:00;14.90;99.90
52211;DHT22;38179;52.756;6.906;2022-07-23T01:41:26;14.90;99.90
52211;DHT22;38179;52.756;6.906;2022-07-23T01:43:52;14.90;99.90
52211;DHT22;38179;52.756;6.906;2022-07-23T01:46:18;14.90;99.90
52211;DHT22;38179;52.756;6.906;2022-07-23T01:48:44;14.90;99.90
52211;DHT22;38179;52.756;6.906;2022-07-23T01:51:10;15.00;99.90
52211;DHT22;38179;52.756;6.906;2022-07-23T01:53:36;14.90;99.90
52211;DHT22;38179;52.756;6.906;2022-07-23T01:56:02;14.90;99.90
52211;DHT22;38179;52.756;6.906;2022-07-23T01:58:29;14.80;99.90
52211;DHT22;38179;52.756;6.906;2022-07-23T02:00:55;14.80;99.90
52211;DHT22;38179;52.756;6.906;2022-07-23T02:03:22;14.80;99.90
52211;DHT22;38179;52.756;6.906;2022-07-23T02:05:48;14.80;99.90
52211;DHT22;38179;52.756;6.906;2022-07-23T02:08:15;14.80;99.90
52211;DHT22;38179;52.756;6.906;2022-07-23T02:10:41;14.80;99.90
52211;DHT22;38179;52.756;6.906;2022-07-23T02:13:07;14.70;99.90
52211;DHT22;38179;52.756;6.906;2022-07-23T02:15:33;14.70;99.90
52211;DHT22;38179;52.756;6.906;2022-07-23T02:18:00;14.70;99.90
52211;DHT22;38179;52.756;6.906;2022-07-23T02:20:26;14.70;99.90
52211;DHT22;38179;52.756;6.906;2022-07-23T02:22:51;14.70;99.90
52211;DHT22;38179;52.756;6.906;2022-07-23T02:25:18;14.70;99.90
52211;DHT22;38179;52.756;6.906;2022-07-23T02:27:44;14.70;99.90
52211;DHT22;38179;52.756;6.906;2022-07-23T02:30:10;14.70;99.90
52211;DHT22;38179;52.756;6.906;2022-07-23T02:32:36;14.70;99.90
52211;DHT22;38179;52.756;6.906;2022-07-23T02:35:03;14.60;99.90
52211;DHT22;38179;52.756;6.906;2022-07-23T02:37:29;14.60;99.90
52211;DHT22;38179;52.756;6.906;2022-07-23T02:39:55;14.50;99.90
52211;DHT22;38179;52.756;6.906;2022-07-23T02:42:21;14.60;99.90
52211;DHT22;38179;52.756;6.906;2022-07-23T02:44:50;14.60;99.90
52211;DHT22;38179;52.756;6.906;2022-07-23T02:47:16;14.50;99.90
52211;DHT22;38179;52.756;6.906;2022-07-23T02:49:42;14.50;99.90
52211;DHT22;38179;52.756;6.906;2022-07-23T02:52:08;14.40;99.90
52211;DHT22;38179;52.756;6.906;2022-07-23T02:54:36;14.40;99.90
52211;DHT22;38179;52.756;6.906;2022-07-23T02:57:03;14.30;99.90
52211;DHT22;38179;52.756;6.906;2022-07-23T02:59:29;14.30;99.90
52211;DHT22;38179;52.756;6.906;2022-07-23T03:01:55;14.30;99.90
52211;DHT22;38179;52.756;6.906;2022-07-23T03:04:21;14.30;99.90
52211;DHT22;38179;52.756;6.906;2022-07-23T03:06:47;14.30;99.90
52211;DHT22;38179;52.756;6.906;2022-07-23T03:09:14;14.30;99.90
52211;DHT22;38179;52.756;6.906;2022-07-23T03:11:39;14.30;99.90
52211;DHT22;38179;52.756;6.906;2022-07-23T03:14:05;14.20;99.90
52211;DHT22;38179;52.756;6.906;2022-07-23T03:16:33;14.10;99.90
52211;DHT22;38179;52.756;6.906;2022-07-23T03:18:58;14.10;99.90
52211;DHT22;38179;52.756;6.906;2022-07-23T03:21:24;14.00;99.90
52211;DHT22;38179;52.756;6.906;2022-07-23T03:23:51;14.00;99.90
52211;DHT22;38179;52.756;6.906;2022-07-23T03:26:17;14.00;99.90
52211;DHT22;38179;52.756;6.906;2022-07-23T03:28:42;13.90;99.90
52211;DHT22;38179;52.756;6.906;2022-07-23T03:31:08;13.80;99.90
52211;DHT22;38179;52.756;6.906;2022-07-23T03:33:34;13.90;99.90
52211;DHT22;38179;52.756;6.906;2022-07-23T03:36:01;13.90;99.90
52211;DHT22;38179;52.756;6.906;2022-07-23T03:38:27;13.80;99.90
52211;DHT22;38179;52.756;6.906;2022-07-23T03:40:53;13.80;99.90
52211;DHT22;38179;52.756;6.906;2022-07-23T03:43:19;13.70;99.90
52211;DHT22;38179;52.756;6.906;2022-07-23T03:45:45;13.70;99.90
52211;DHT22;38179;52.756;6.906;2022-07-23T03:48:11;13.70;99.90
52211;DHT22;38179;52.756;6.906;2022-07-23T03:50:37;13.70;99.90
52211;DHT22;38179;52.756;6.906;2022-07-23T03:53:03;13.70;99.90
52211;DHT22;38179;52.756;6.906;2022-07-23T03:55:29;13.60;99.90
52211;DHT22;38179;52.756;6.906;2022-07-23T03:57:55;13.60;99.90
52211;DHT22;38179;52.756;6.906;2022-07-23T04:00:21;13.60;99.90
52211;DHT22;38179;52.756;6.906;2022-07-23T04:02:47;13.60;99.90
52211;DHT22;38179;52.756;6.906;2022-07-23T04:05:13;13.60;99.90
52211;DHT22;38179;52.756;6.906;2022-07-23T04:07:39;13.60;99.90
52211;DHT22;38179;52.756;6.906;2022-07-23T04:10:06;13.60;99.90
52211;DHT22;38179;52.756;6.906;2022-07-23T04:12:32;13.50;99.90
52211;DHT22;38179;52.756;6.906;2022-07-23T04:14:58;13.40;99.90
52211;DHT22;38179;52.756;6.906;2022-07-23T04:17:24;13.40;99.90
52211;DHT22;38179;52.756;6.906;2022-07-23T04:19:49;13.50;99.90
52211;DHT22;38179;52.756;6.906;2022-07-23T04:22:15;13.50;99.90
52211;DHT22;38179;52.756;6.906;2022-07-23T04:24:41;13.60;99.90
52211;DHT22;38179;52.756;6.906;2022-07-23T04:27:07;13.70;99.90
52211;DHT22;38179;52.756;6.906;2022-07-23T04:29:33;13.80;99.90
52211;DHT22;38179;52.756;6.906;2022-07-23T04:31:59;13.90;99.90
52211;DHT22;38179;52.756;6.906;2022-07-23T04:34:25;13.90;99.90
52211;DHT22;38179;52.756;6.906;2022-07-23T04:36:52;13.90;99.90
52211;DHT22;38179;52.756;6.906;2022-07-23T04:39:19;13.80;99.90
52211;DHT22;38179;52.756;6.906;2022-07-23T04:41:45;13.70;99.90
52211;DHT22;38179;52.756;6.906;2022-07-23T04:44:11;13.70;99.90
52211;DHT22;38179;52.756;6.906;2022-07-23T04:46:36;13.80;99.90
52211;DHT22;38179;52.756;6.906;2022-07-23T04:49:02;13.80;99.90
52211;DHT22;38179;52.756;6.906;2022-07-23T04:51:28;13.90;99.90
52211;DHT22;38179;52.756;6.906;2022-07-23T04:53:55;14.00;99.90
52211;DHT22;38179;52.756;6.906;2022-07-23T04:56:21;14.00;99.90
52211;DHT22;38179;52.756;6.906;2022-07-23T04:58:47;13.90;99.90
52211;DHT22;38179;52.756;6.906;2022-07-23T05:01:13;13.90;99.90
52211;DHT22;38179;52.756;6.906;2022-07-23T05:03:39;14.00;99.90
52211;DHT22;38179;52.756;6.906;2022-07-23T05:06:05;14.00;99.90
52211;DHT22;38179;52.756;6.906;2022-07-23T05:08:31;14.00;99.90
52211;DHT22;38179;52.756;6.906;2022-07-23T05:10:57;13.90;99.90
52211;DHT22;38179;52.756;6.906;2022-07-23T05:13:23;13.90;99.90
52211;DHT22;38179;52.756;6.906;2022-07-23T05:15:49;14.00;99.90
52211;DHT22;38179;52.756;6.906;2022-07-23T05:18:15;13.90;99.90
52211;DHT22;38179;52.756;6.906;2022-07-23T05:20:42;14.00;99.90
52211;DHT22;38179;52.756;6.906;2022-07-23T05:23:08;14.00;99.90
52211;DHT22;38179;52.756;6.906;2022-07-23T05:25:34;14.10;99.90
52211;DHT22;38179;52.756;6.906;2022-07-23T05:28:00;14.10;99.90
52211;DHT22;38179;52.756;6.906;2022-07-23T05:30:25;14.20;99.90
52211;DHT22;38179;52.756;6.906;2022-07-23T05:32:51;14.30;99.90
52211;DHT22;38179;52.756;6.906;2022-07-23T05:35:17;14.30;99.90
52211;DHT22;38179;52.756;6.906;2022-07-23T05:37:43;14.40;99.90
52211;DHT22;38179;52.756;6.906;2022-07-23T05:40:10;14.40;99.90
52211;DHT22;38179;52.756;6.906;2022-07-23T05:42:40;14.50;99.90
52211;DHT22;38179;52.756;6.906;2022-07-23T05:45:07;14.50;99.90
52211;DHT22;38179;52.756;6.906;2022-07-23T05:47:43;14.50;99.90
52211;DHT22;38179;52.756;6.906;2022-07-23T05:50:10;14.60;99.90
52211;DHT22;38179;52.756;6.906;2022-07-23T05:52:36;14.60;99.90
52211;DHT22;38179;52.756;6.906;2022-07-23T05:55:02;14.60;99.90
52211;DHT22;38179;52.756;6.906;2022-07-23T05:57:28;14.70;99.90
52211;DHT22;38179;52.756;6.906;2022-07-23T05:59:54;14.80;99.90
52211;DHT22;38179;52.756;6.906;2022-07-23T06:02:20;14.80;99.90
52211;DHT22;38179;52.756;6.906;2022-07-23T06:04:45;14.90;99.90
52211;DHT22;38179;52.756;6.906;2022-07-23T06:07:12;15.00;99.90
52211;DHT22;38179;52.756;6.906;2022-07-23T06:09:37;15.00;99.90
52211;DHT22;38179;52.756;6.906;2022-07-23T06:12:04;15.00;99.90
52211;DHT22;38179;52.756;6.906;2022-07-23T06:14:30;15.10;99.90
52211;DHT22;38179;52.756;6.906;2022-07-23T06:16:56;15.10;99.90
52211;DHT22;38179;52.756;6.906;2022-07-23T06:19:24;15.20;99.90
52211;DHT22;38179;52.756;6.906;2022-07-23T06:21:59;15.20;99.90
52211;DHT22;38179;52.756;6.906;2022-07-23T06:24:25;15.30;99.90
52211;DHT22;38179;52.756;6.906;2022-07-23T06:26:51;15.30;99.90
52211;DHT22;38179;52.756;6.906;2022-07-23T06:29:17;15.30;99.90
52211;DHT22;38179;52.756;6.906;2022-07-23T06:31:43;15.30;99.90
52211;DHT22;38179;52.756;6.906;2022-07-23T06:34:09;15.40;99.90
52211;DHT22;38179;52.756;6.906;2022-07-23T06:36:35;15.40;99.90
52211;DHT22;38179;52.756;6.906;2022-07-23T06:39:01;15.40;99.90
52211;DHT22;38179;52.756;6.906;2022-07-23T06:41:27;15.40;99.90
52211;DHT22;38179;52.756;6.906;2022-07-23T06:43:53;15.40;99.90
52211;DHT22;38179;52.756;6.906;2022-07-23T06:46:18;15.40;99.90
52211;DHT22;38179;52.756;6.906;2022-07-23T06:48:44;15.40;99.90
52211;DHT22;38179;52.756;6.906;2022-07-23T06:51:10;15.40;99.90
52211;DHT22;38179;52.756;6.906;2022-07-23T06:53:36;15.50;99.90
52211;DHT22;38179;52.756;6.906;2022-07-23T06:56:02;15.50;99.90
52211;DHT22;38179;52.756;6.906;2022-07-23T06:58:28;15.50;99.90
52211;DHT22;38179;52.756;6.906;2022-07-23T07:00:54;15.60;99.90
52211;DHT22;38179;52.756;6.906;2022-07-23T07:03:20;15.60;99.90
52211;DHT22;38179;52.756;6.906;2022-07-23T07:05:46;15.60;99.90
52211;DHT22;38179;52.756;6.906;2022-07-23T07:08:11;15.70;99.90
52211;DHT22;38179;52.756;6.906;2022-07-23T07:10:37;15.70;99.90
52211;DHT22;38179;52.756;6.906;2022-07-23T07:13:03;15.80;99.90
52211;DHT22;38179;52.756;6.906;2022-07-23T07:15:29;15.80;99.90
52211;DHT22;38179;52.756;6.906;2022-07-23T07:17:55;15.80;99.90
52211;DHT22;38179;52.756;6.906;2022-07-23T07:20:21;15.80;99.90
52211;DHT22;38179;52.756;6.906;2022-07-23T07:22:47;15.90;99.90
52211;DHT22;38179;52.756;6.906;2022-07-23T07:25:14;15.90;99.90
52211;DHT22;38179;52.756;6.906;2022-07-23T07:27:40;15.90;99.90
52211;DHT22;38179;52.756;6.906;2022-07-23T07:30:07;16.00;99.90
52211;DHT22;38179;52.756;6.906;2022-07-23T07:32:33;16.00;99.90
52211;DHT22;38179;52.756;6.906;2022-07-23T07:34:59;16.00;99.90
52211;DHT22;38179;52.756;6.906;2022-07-23T07:37:25;16.10;99.90
52211;DHT22;38179;52.756;6.906;2022-07-23T07:39:51;16.10;99.90
52211;DHT22;38179;52.756;6.906;2022-07-23T07:42:16;16.10;99.90
52211;DHT22;38179;52.756;6.906;2022-07-23T07:44:42;16.10;99.90
52211;DHT22;38179;52.756;6.906;2022-07-23T07:47:08;16.20;99.90
52211;DHT22;38179;52.756;6.906;2022-07-23T07:49:34;16.20;99.90
52211;DHT22;38179;52.756;6.906;2022-07-23T07:52:00;16.20;99.90
52211;DHT22;38179;52.756;6.906;2022-07-23T07:54:26;16.20;99.90
52211;DHT22;38179;52.756;6.906;2022-07-23T07:56:51;16.10;99.90
52211;DHT22;38179;52.756;6.906;2022-07-23T07:59:17;16.20;99.90
52211;DHT22;38179;52.756;6.906;2022-07-23T08:01:43;16.20;99.90
52211;DHT22;38179;52.756;6.906;2022-07-23T08:04:09;16.20;99.90
52211;DHT22;38179;52.756;6.906;2022-07-23T08:06:35;16.30;99.90
52211;DHT22;38179;52.756;6.906;2022-07-23T08:09:01;16.30;99.90
52211;DHT22;38179;52.756;6.906;2022-07-23T08:11:26;16.30;99.90
52211;DHT22;38179;52.756;6.906;2022-07-23T08:13:52;16.40;99.90
52211;DHT22;38179;52.756;6.906;2022-07-23T08:16:18;16.50;99.90
52211;DHT22;38179;52.756;6.906;2022-07-23T08:18:44;16.50;99.90
52211;DHT22;38179;52.756;6.906;2022-07-23T08:21:10;16.60;99.90
52211;DHT22;38179;52.756;6.906;2022-07-23T08:23:36;16.50;99.90
52211;DHT22;38179;52.756;6.906;2022-07-23T08:26:02;16.60;99.90
52211;DHT22;38179;52.756;6.906;2022-07-23T08:28:28;16.70;99.90
52211;DHT22;38179;52.756;6.906;2022-07-23T08:30:54;16.80;99.90
52211;DHT22;38179;52.756;6.906;2022-07-23T08:33:20;16.80;99.90
52211;DHT22;38179;52.756;6.906;2022-07-23T08:35:48;16.90;99.90
52211;DHT22;38179;52.756;6.906;2022-07-23T08:38:17;16.90;99.90
52211;DHT22;38179;52.756;6.906;2022-07-23T08:40:48;16.90;99.90
52211;DHT22;38179;52.756;6.906;2022-07-23T08:43:19;16.90;99.90
52211;DHT22;38179;52.756;6.906;2022-07-23T08:45:46;16.90;99.90
52211;DHT22;38179;52.756;6.906;2022-07-23T08:48:23;17.00;99.90
52211;DHT22;38179;52.756;6.906;2022-07-23T08:50:51;17.00;99.90
52211;DHT22;38179;52.756;6.906;2022-07-23T08:53:18;17.00;99.90
52211;DHT22;38179;52.756;6.906;2022-07-23T08:55:45;17.00;99.90
52211;DHT22;38179;52.756;6.906;2022-07-23T08:58:13;17.00;99.90
52211;DHT22;38179;52.756;6.906;2022-07-23T09:00:39;17.00;99.90
52211;DHT22;38179;52.756;6.906;2022-07-23T09:03:05;17.10;99.90
52211;DHT22;38179;52.756;6.906;2022-07-23T09:05:30;17.00;99.90
52211;DHT22;38179;52.756;6.906;2022-07-23T09:08:08;17.10;99.90
52211;DHT22;38179;52.756;6.906;2022-07-23T09:10:56;17.10;99.90
52211;DHT22;38179;52.756;6.906;2022-07-23T09:16:14;17.30;99.90
52211;DHT22;38179;52.756;6.906;2022-07-23T09:18:49;17.30;99.90
52211;DHT22;38179;52.756;6.906;2022-07-23T09:21:19;17.40;99.90
52211;DHT22;38179;52.756;6.906;2022-07-23T09:32:00;17.50;99.90
52211;DHT22;38179;52.756;6.906;2022-07-23T09:34:30;17.70;99.90
52211;DHT22;38179;52.756;6.906;2022-07-23T09:37:09;17.70;99.90
52211;DHT22;38179;52.756;6.906;2022-07-23T09:39:36;17.70;99.90
52211;DHT22;38179;52.756;6.906;2022-07-23T09:42:21;17.70;99.90
52211;DHT22;38179;52.756;6.906;2022-07-23T09:44:49;17.70;99.90
52211;DHT22;38179;52.756;6.906;2022-07-23T09:47:16;17.70;99.90
52211;DHT22;38179;52.756;6.906;2022-07-23T09:50:06;17.70;99.90
52211;DHT22;38179;52.756;6.906;2022-07-23T09:52:36;17.70;99.90
52211;DHT22;38179;52.756;6.906;2022-07-23T09:55:04;17.80;99.90
52211;DHT22;38179;52.756;6.906;2022-07-23T09:57:31;17.90;99.90
52211;DHT22;38179;52.756;6.906;2022-07-23T10:00:01;18.00;99.90
52211;DHT22;38179;52.756;6.906;2022-07-23T10:02:28;18.00;99.90
52211;DHT22;38179;52.756;6.906;2022-07-23T10:04:57;18.10;99.90
52211;DHT22;38179;52.756;6.906;2022-07-23T10:07:25;18.10;99.90
52211;DHT22;38179;52.756;6.906;2022-07-23T10:09:53;18.20;99.90
52211;DHT22;38179;52.756;6.906;2022-07-23T10:12:19;18.20;99.90
52211;DHT22;38179;52.756;6.906;2022-07-23T10:15:01;18.20;99.90
52211;DHT22;38179;52.756;6.906;2022-07-23T10:17:29;18.10;99.90
52211;DHT22;38179;52.756;6.906;2022-07-23T10:19:55;18.10;99.90
52211;DHT22;38179;52.756;6.906;2022-07-23T10:22:24;18.20;99.90
52211;DHT22;38179;52.756;6.906;2022-07-23T10:25:22;18.30;99.90
52211;DHT22;38179;52.756;6.906;2022-07-23T10:36:22;18.50;99.90
52211;DHT22;38179;52.756;6.906;2022-07-23T10:39:04;18.50;99.90
52211;DHT22;38179;52.756;6.906;2022-07-23T10:41:38;18.60;99.90
52211;DHT22;38179;52.756;6.906;2022-07-23T10:44:19;18.60;99.90
52211;DHT22;38179;52.756;6.906;2022-07-23T10:47:03;18.70;99.90
52211;DHT22;38179;52.756;6.906;2022-07-23T10:49:41;18.80;99.90
52211;DHT22;38179;52.756;6.906;2022-07-23T10:52:26;18.80;99.90
52211;DHT22;38179;52.756;6.906;2022-07-23T10:54:53;18.80;99.90
52211;DHT22;38179;52.756;6.906;2022-07-23T10:57:21;18.80;99.90
52211;DHT22;38179;52.756;6.906;2022-07-23T11:02:30;18.80;99.90
52211;DHT22;38179;52.756;6.906;2022-07-23T11:05:10;18.80;99.90
52211;DHT22;38179;52.756;6.906;2022-07-23T11:13:35;18.90;99.90
52211;DHT22;38179;52.756;6.906;2022-07-23T11:32:02;19.30;99.90
52211;DHT22;38179;52.756;6.906;2022-07-23T11:37:06;19.20;99.90
52211;DHT22;38179;52.756;6.906;2022-07-23T11:39:33;19.20;99.90
52211;DHT22;38179;52.756;6.906;2022-07-23T11:42:00;19.40;99.90
52211;DHT22;38179;52.756;6.906;2022-07-23T11:44:31;19.40;99.90
52211;DHT22;38179;52.756;6.906;2022-07-23T11:47:02;19.50;99.90
52211;DHT22;38179;52.756;6.906;2022-07-23T11:49:28;19.60;99.90
52211;DHT22;38179;52.756;6.906;2022-07-23T11:52:12;19.50;99.90
52211;DHT22;38179;52.756;6.906;2022-07-23T11:54:56;19.50;99.90
52211;DHT22;38179;52.756;6.906;2022-07-23T11:57:28;19.60;99.90
52211;DHT22;38179;52.756;6.906;2022-07-23T12:02:22;19.70;99.90
52211;DHT22;38179;52.756;6.906;2022-07-23T12:04:50;19.90;99.90
52211;DHT22;38179;52.756;6.906;2022-07-23T12:07:34;20.00;99.90
52211;DHT22;38179;52.756;6.906;2022-07-23T12:10:24;19.90;99.90
52211;DHT22;38179;52.756;6.906;2022-07-23T12:15:25;20.00;99.90
52211;DHT22;38179;52.756;6.906;2022-07-23T12:17:52;20.00;99.90
52211;DHT22;38179;52.756;6.906;2022-07-23T12:20:24;20.10;99.90
52211;DHT22;38179;52.756;6.906;2022-07-23T12:22:55;20.20;99.90
52211;DHT22;38179;52.756;6.906;2022-07-23T12:25:24;20.20;99.90
52211;DHT22;38179;52.756;6.906;2022-07-23T12:28:08;20.20;99.90
52211;DHT22;38179;52.756;6.906;2022-07-23T12:30:41;20.20;99.90
52211;DHT22;38179;52.756;6.906;2022-07-23T12:33:09;20.30;99.90
52211;DHT22;38179;52.756;6.906;2022-07-23T12:35:41;20.50;99.90
52211;DHT22;38179;52.756;6.906;2022-07-23T12:38:14;20.60;99.90
52211;DHT22;38179;52.756;6.906;2022-07-23T12:43:31;20.70;99.90
52211;DHT22;38179;52.756;6.906;2022-07-23T12:46:10;20.70;99.90
52211;DHT22;38179;52.756;6.906;2022-07-23T12:53:47;20.90;99.90
52211;DHT22;38179;52.756;6.906;2022-07-23T12:56:30;21.00;99.90
52211;DHT22;38179;52.756;6.906;2022-07-23T13:01:39;21.20;99.90
52211;DHT22;38179;52.756;6.906;2022-07-23T13:04:14;21.30;99.90
52211;DHT22;38179;52.756;6.906;2022-07-23T13:06:45;21.20;99.90
52211;DHT22;38179;52.756;6.906;2022-07-23T13:09:23;21.10;99.90
52211;DHT22;38179;52.756;6.906;2022-07-23T13:11:50;21.10;99.90
52211;DHT22;38179;52.756;6.906;2022-07-23T13:14:17;21.00;99.90
52211;DHT22;38179;52.756;6.906;2022-07-23T13:16:44;20.90;99.90
52211;DHT22;38179;52.756;6.906;2022-07-23T13:19:11;21.00;99.90
52211;DHT22;38179;52.756;6.906;2022-07-23T13:21:37;21.10;99.90
52211;DHT22;38179;52.756;6.906;2022-07-23T13:24:03;21.20;99.90
52211;DHT22;38179;52.756;6.906;2022-07-23T13:26:29;21.40;99.90
52211;DHT22;38179;52.756;6.906;2022-07-23T13:28:55;21.60;99.90
52211;DHT22;38179;52.756;6.906;2022-07-23T13:31:21;21.70;99.90
52211;DHT22;38179;52.756;6.906;2022-07-23T13:33:47;21.80;99.90
52211;DHT22;38179;52.756;6.906;2022-07-23T13:36:14;21.80;99.90
52211;DHT22;38179;52.756;6.906;2022-07-23T13:38:40;22.00;99.90
52211;DHT22;38179;52.756;6.906;2022-07-23T13:41:06;22.10;99.90
52211;DHT22;38179;52.756;6.906;2022-07-23T13:43:32;22.30;99.90
52211;DHT22;38179;52.756;6.906;2022-07-23T13:45:58;22.40;99.90
52211;DHT22;38179;52.756;6.906;2022-07-23T13:48:25;22.30;99.90
52211;DHT22;38179;52.756;6.906;2022-07-23T13:50:51;22.40;99.90
52211;DHT22;38179;52.756;6.906;2022-07-23T13:53:20;22.40;99.90
52211;DHT22;38179;52.756;6.906;2022-07-23T13:55:48;22.40;99.90
52211;DHT22;38179;52.756;6.906;2022-07-23T13:58:15;22.40;99.90
52211;DHT22;38179;52.756;6.906;2022-07-23T14:00:47;22.20;99.90
52211;DHT22;38179;52.756;6.906;2022-07-23T14:03:13;21.90;99.90
52211;DHT22;38179;52.756;6.906;2022-07-23T14:05:40;21.80;99.90
52211;DHT22;38179;52.756;6.906;2022-07-23T14:08:07;21.70;99.90
52211;DHT22;38179;52.756;6.906;2022-07-23T14:10:33;21.70;99.90
52211;DHT22;38179;52.756;6.906;2022-07-23T14:12:59;21.60;99.90
52211;DHT22;38179;52.756;6.906;2022-07-23T14:15:27;21.70;99.90
52211;DHT22;38179;52.756;6.906;2022-07-23T14:17:53;21.90;99.90
52211;DHT22;38179;52.756;6.906;2022-07-23T14:20:20;22.10;99.90
52211;DHT22;38179;52.756;6.906;2022-07-23T14:22:46;22.30;99.90
52211;DHT22;38179;52.756;6.906;2022-07-23T14:25:12;22.50;99.90
52211;DHT22;38179;52.756;6.906;2022-07-23T14:27:38;22.60;99.90
52211;DHT22;38179;52.756;6.906;2022-07-23T14:30:09;22.50;99.90
52211;DHT22;38179;52.756;6.906;2022-07-23T14:32:37;22.50;99.90
52211;DHT22;38179;52.756;6.906;2022-07-23T14:35:04;22.30;99.90
52211;DHT22;38179;52.756;6.906;2022-07-23T14:37:30;22.10;99.90
52211;DHT22;38179;52.756;6.906;2022-07-23T14:39:56;22.00;99.90
52211;DHT22;38179;52.756;6.906;2022-07-23T14:42:22;22.00;99.90
52211;DHT22;38179;52.756;6.906;2022-07-23T14:44:48;22.10;99.90
52211;DHT22;38179;52.756;6.906;2022-07-23T14:47:14;22.40;99.90
52211;DHT22;38179;52.756;6.906;2022-07-23T14:49:39;22.50;99.90
52211;DHT22;38179;52.756;6.906;2022-07-23T14:52:06;22.70;99.90
52211;DHT22;38179;52.756;6.906;2022-07-23T14:54:32;22.90;99.90
52211;DHT22;38179;52.756;6.906;2022-07-23T14:56:59;22.70;99.90
52211;DHT22;38179;52.756;6.906;2022-07-23T14:59:26;22.40;99.90
52211;DHT22;38179;52.756;6.906;2022-07-23T15:01:53;22.40;99.90
52211;DHT22;38179;52.756;6.906;2022-07-23T15:04:19;22.50;99.90
52211;DHT22;38179;52.756;6.906;2022-07-23T15:06:45;22.60;99.90
52211;DHT22;38179;52.756;6.906;2022-07-23T15:09:11;22.50;99.90
52211;DHT22;38179;52.756;6.906;2022-07-23T15:11:37;22.40;99.90
52211;DHT22;38179;52.756;6.906;2022-07-23T15:14:04;22.60;99.90
52211;DHT22;38179;52.756;6.906;2022-07-23T15:16:30;22.80;99.90
52211;DHT22;38179;52.756;6.906;2022-07-23T15:18:57;22.90;99.90
52211;DHT22;38179;52.756;6.906;2022-07-23T15:21:23;23.20;99.90
52211;DHT22;38179;52.756;6.906;2022-07-23T15:23:49;23.30;99.90
52211;DHT22;38179;52.756;6.906;2022-07-23T15:26:16;23.30;99.90
52211;DHT22;38179;52.756;6.906;2022-07-23T15:28:45;23.40;99.90
52211;DHT22;38179;52.756;6.906;2022-07-23T15:31:13;23.40;99.90
52211;DHT22;38179;52.756;6.906;2022-07-23T15:33:39;23.60;99.90
52211;DHT22;38179;52.756;6.906;2022-07-23T15:36:06;23.70;99.90
52211;DHT22;38179;52.756;6.906;2022-07-23T15:38:32;23.70;99.90
52211;DHT22;38179;52.756;6.906;2022-07-23T15:40:58;23.60;99.90
52211;DHT22;38179;52.756;6.906;2022-07-23T15:43:25;23.50;99.90
52211;DHT22;38179;52.756;6.906;2022-07-23T15:45:52;23.40;99.90
52211;DHT22;38179;52.756;6.906;2022-07-23T15:48:19;23.60;99.90
52211;DHT22;38179;52.756;6.906;2022-07-23T15:50:47;23.70;99.90
52211;DHT22;38179;52.756;6.906;2022-07-23T15:53:14;23.90;99.90
52211;DHT22;38179;52.756;6.906;2022-07-23T15:55:40;24.10;99.90
52211;DHT22;38179;52.756;6.906;2022-07-23T15:58:06;24.00;99.90
52211;DHT22;38179;52.756;6.906;2022-07-23T16:00:33;24.00;99.90
52211;DHT22;38179;52.756;6.906;2022-07-23T16:03:00;23.90;99.90
52211;DHT22;38179;52.756;6.906;2022-07-23T16:05:25;23.80;99.90
52211;DHT22;38179;52.756;6.906;2022-07-23T16:07:58;24.00;99.90
52211;DHT22;38179;52.756;6.906;2022-07-23T16:10:24;24.10;99.90
52211;DHT22;38179;52.756;6.906;2022-07-23T16:12:50;24.10;99.90
52211;DHT22;38179;52.756;6.906;2022-07-23T16:15:16;23.90;99.90
52211;DHT22;38179;52.756;6.906;2022-07-23T16:17:42;23.50;99.90
52211;DHT22;38179;52.756;6.906;2022-07-23T16:20:09;23.40;99.90
52211;DHT22;38179;52.756;6.906;2022-07-23T16:22:35;23.30;99.90
52211;DHT22;38179;52.756;6.906;2022-07-23T16:25:02;23.40;99.90
52211;DHT22;38179;52.756;6.906;2022-07-23T16:27:30;23.70;99.90
52211;DHT22;38179;52.756;6.906;2022-07-23T16:29:56;23.80;99.90
52211;DHT22;38179;52.756;6.906;2022-07-23T16:32:22;24.00;99.90
52211;DHT22;38179;52.756;6.906;2022-07-23T16:34:48;24.10;99.90